Time;durP1;ratioP1;P1;durP2;ratioP2;P2;SDS_P1;SDS_P2;PMS_P1;PMS_P2;Temp;Humidity;BMP_temperature;BMP_pressure;BME280_temperature;BME280_humidity;BME280_pressure;Samples;Min_cycle;Max_cycle;Signal;HPM_P1;HPM_P2
2023/01/15 00:00:19;;;;;;;12.48;1.20;;;5.00;99.90;;;;;;5047459;28;20041;-43
2023/01/15 00:02:45;;;;;;;6.38;0.60;;;5.00;99.90;;;;;;5047019;28;20045;-41
2023/01/15 00:05:11;;;;;;;6.18;0.60;;;5.20;99.90;;;;;;5029354;28;20052;-42
2023/01/15 00:07:36;;;;;;;8.73;0.82;;;5.00;99.90;;;;;;5047882;28;20079;-44
2023/01/15 00:10:02;;;;;;;5.35;0.57;;;4.90;99.90;;;;;;5047744;28;20316;-42
2023/01/15 00:12:28;;;;;;;11.13;1.40;;;5.00;99.90;;;;;;5047771;28;20069;-41
2023/01/15 00:14:53;;;;;;;10.95;1.00;;;4.90;99.90;;;;;;5046846;28;20463;-42
2023/01/15 00:17:19;;;;;;;10.23;0.75;;;4.90;99.90;;;;;;5047255;28;20498;-42
2023/01/15 00:19:45;;;;;;;8.27;0.68;;;4.90;99.90;;;;;;5047860;28;20053;-41
2023/01/15 00:22:11;;;;;;;12.38;1.13;;;4.80;99.90;;;;;;5048022;28;20045;-42
2023/01/15 00:27:39;;;;;;;15.63;0.82;;;4.90;99.90;;;;;;5047239;28;20059;-41
2023/01/15 00:30:09;;;;;;;9.63;1.95;;;4.90;99.90;;;;;;5047570;28;20718;-42
2023/01/15 00:32:35;;;;;;;9.32;0.98;;;4.90;99.90;;;;;;5047571;28;20044;-41
2023/01/15 00:35:01;;;;;;;11.50;1.15;;;4.90;99.90;;;;;;5046712;28;20062;-42
2023/01/15 00:37:27;;;;;;;9.93;0.73;;;4.90;99.90;;;;;;5047242;28;20052;-42
2023/01/15 00:39:52;;;;;;;11.25;0.95;;;4.90;99.90;;;;;;5046867;28;20399;-43
2023/01/15 00:42:18;;;;;;;16.15;0.82;;;4.90;99.90;;;;;;5046706;28;20040;-42
2023/01/15 00:44:45;;;;;;;11.02;1.33;;;4.90;99.90;;;;;;5047341;28;20182;-42
2023/01/15 00:47:13;;;;;;;10.10;0.90;;;5.00;99.90;;;;;;5047395;28;20045;-42
2023/01/15 00:49:41;;;;;;;15.25;2.50;;;4.90;99.90;;;;;;5047587;28;20138;-42
2023/01/15 00:52:06;;;;;;;21.10;1.88;;;4.90;99.90;;;;;;5046896;28;20692;-42
2023/01/15 00:54:32;;;;;;;19.13;0.95;;;4.90;99.90;;;;;;5047005;28;20044;-43
2023/01/15 00:56:58;;;;;;;9.95;1.17;;;4.90;99.90;;;;;;5046668;28;20048;-43
2023/01/15 00:59:24;;;;;;;10.13;1.55;;;4.90;99.90;;;;;;5046817;28;20121;-42
2023/01/15 01:01:49;;;;;;;13.35;0.75;;;4.90;99.90;;;;;;5046575;28;20124;-41
2023/01/15 01:04:15;;;;;;;12.93;1.52;;;4.90;99.90;;;;;;5028482;28;20076;-43
2023/01/15 01:06:41;;;;;;;21.67;2.45;;;5.40;99.90;;;;;;5046482;28;20789;-42
2023/01/15 01:09:09;;;;;;;13.40;1.48;;;4.90;99.90;;;;;;5046662;28;20056;-42
2023/01/15 01:11:36;;;;;;;10.23;0.73;;;4.80;99.90;;;;;;5046678;28;20049;-43
2023/01/15 01:14:01;;;;;;;11.18;1.10;;;4.90;99.90;;;;;;5046585;28;20776;-42
2023/01/15 01:16:34;;;;;;;10.50;1.38;;;4.70;99.90;;;;;;5046352;28;20068;-41
2023/01/15 01:19:02;;;;;;;15.90;1.80;;;4.90;99.90;;;;;;5046196;28;20053;-41
2023/01/15 01:21:28;;;;;;;16.42;0.98;;;4.90;99.90;;;;;;5046491;28;20045;-43
2023/01/15 01:23:54;;;;;;;15.35;1.30;;;4.80;99.90;;;;;;5047292;28;20383;-42
2023/01/15 01:26:20;;;;;;;13.50;1.05;;;4.60;99.90;;;;;;5046425;28;20040;-43
2023/01/15 01:28:53;;;;;;;15.95;0.82;;;4.70;99.90;;;;;;5049963;28;20048;-42
2023/01/15 01:31:19;;;;;;;8.10;0.68;;;4.90;99.90;;;;;;5050044;28;20040;-41
2023/01/15 01:33:48;;;;;;;8.27;1.10;;;4.60;99.90;;;;;;5050352;28;20037;-42
2023/01/15 01:36:14;;;;;;;10.68;0.70;;;4.90;99.90;;;;;;5049858;28;20041;-42
2023/01/15 01:38:40;;;;;;;13.45;2.25;;;4.70;99.90;;;;;;5050336;28;20071;-42
2023/01/15 01:41:05;;;;;;;11.43;1.25;;;4.90;99.90;;;;;;5050020;28;20131;-41
2023/01/15 01:43:50;;;;;;;13.07;0.90;;;4.80;99.90;;;;;;5049094;28;20045;-43
2023/01/15 01:46:16;;;;;;;14.35;1.05;;;4.70;99.90;;;;;;5050234;28;20128;-43
2023/01/15 01:48:42;;;;;;;10.95;0.80;;;4.80;99.90;;;;;;5050227;28;20103;-42
2023/01/15 01:51:08;;;;;;;13.20;0.63;;;5.60;99.90;;;;;;5049739;28;20076;-41
2023/01/15 01:53:33;;;;;;;13.25;1.30;;;4.90;99.90;;;;;;5049999;28;20039;-41
2023/01/15 01:56:00;;;;;;;15.88;1.23;;;4.70;99.90;;;;;;5050050;28;20137;-41
2023/01/15 01:58:29;;;;;;;12.63;1.40;;;4.20;99.90;;;;;;5049259;28;20421;-42
2023/01/15 02:00:55;;;;;;;11.00;1.27;;;4.70;99.90;;;;;;5049465;28;20045;-41
2023/01/15 02:03:28;;;;;;;10.23;1.38;;;4.70;99.90;;;;;;5049715;28;20060;-41
2023/01/15 02:05:57;;;;;;;17.05;1.00;;;4.90;99.90;;;;;;5050157;28;20045;-43
2023/01/15 02:08:23;;;;;;;5.13;0.50;;;4.80;99.90;;;;;;5049527;28;20067;-43
2023/01/15 02:10:52;;;;;;;14.85;2.08;;;4.80;99.90;;;;;;5049612;28;20167;-42
2023/01/15 02:13:56;;;;;;;8.15;0.93;;;4.80;99.90;;;;;;5049490;28;20079;-42
2023/01/15 02:16:28;;;;;;;13.50;0.85;;;4.70;99.90;;;;;;5049312;28;20065;-43
2023/01/15 02:18:57;;;;;;;10.65;1.10;;;4.70;99.90;;;;;;5049438;28;20510;-43
2023/01/15 02:21:29;;;;;;;14.35;1.15;;;4.70;99.90;;;;;;5049518;28;20044;-42
2023/01/15 02:24:35;;;;;;;12.05;0.82;;;5.50;99.90;;;;;;5049841;28;20063;-43
2023/01/15 02:27:07;;;;;;;9.25;0.63;;;5.60;99.90;;;;;;5032083;28;20110;-41
2023/01/15 02:29:43;;;;;;;10.18;0.77;;;5.50;99.90;;;;;;5049731;28;20152;-42
2023/01/15 02:32:25;;;;;;;25.90;2.28;;;4.70;99.90;;;;;;5049003;28;20601;-42
2023/01/15 02:34:54;;;;;;;12.07;1.30;;;4.70;99.90;;;;;;5049023;28;20127;-41
2023/01/15 02:37:27;;;;;;;13.68;1.35;;;4.90;99.90;;;;;;5049120;28;20045;-41
2023/01/15 02:39:57;;;;;;;16.85;1.08;;;4.80;99.90;;;;;;5048400;28;20041;-42
2023/01/15 02:42:25;;;;;;;13.05;0.88;;;5.50;99.90;;;;;;5049304;28;20084;-41
2023/01/15 02:44:53;;;;;;;11.40;1.48;;;4.90;99.90;;;;;;5049079;28;20493;-43
2023/01/15 02:47:25;;;;;;;12.05;0.73;;;4.80;99.90;;;;;;5049201;28;20045;-42
2023/01/15 02:49:54;;;;;;;14.05;0.82;;;5.00;99.90;;;;;;5049751;28;20068;-43
2023/01/15 02:52:26;;;;;;;11.43;1.42;;;4.80;99.90;;;;;;5049338;28;20037;-41
2023/01/15 02:55:04;;;;;;;14.63;1.20;;;4.80;99.90;;;;;;5049292;28;20423;-42
2023/01/15 02:57:33;;;;;;;14.75;1.40;;;4.80;99.90;;;;;;5048542;28;20091;-41
2023/01/15 03:00:04;;;;;;;13.82;1.23;;;4.80;99.90;;;;;;5048746;28;20040;-42
2023/01/15 03:02:35;;;;;;;10.40;1.08;;;5.50;99.90;;;;;;5048161;28;20060;-41
2023/01/15 03:05:04;;;;;;;13.38;1.67;;;4.70;99.90;;;;;;5049136;28;20076;-42
2023/01/15 03:07:39;;;;;;;10.63;0.90;;;4.80;99.90;;;;;;5048611;28;20049;-42
2023/01/15 03:10:05;;;;;;;14.40;0.95;;;4.90;99.90;;;;;;5048889;28;20055;-41
2023/01/15 03:13:02;;;;;;;13.13;1.65;;;4.70;99.90;;;;;;5048254;28;20260;-42
2023/01/15 03:19:11;;;;;;;9.45;0.77;;;4.80;99.90;;;;;;5048263;28;20075;-43
2023/01/15 03:21:45;;;;;;;13.38;0.73;;;4.70;99.90;;;;;;5048492;28;20644;-43
2023/01/15 03:24:13;;;;;;;10.93;0.95;;;4.80;99.90;;;;;;5048466;28;20482;-43
2023/01/15 03:26:39;;;;;;;13.32;0.90;;;4.80;99.90;;;;;;5048491;28;20044;-42
2023/01/15 03:29:07;;;;;;;18.05;1.40;;;4.80;99.90;;;;;;5048359;28;20051;-43
2023/01/15 03:31:35;;;;;;;13.32;1.10;;;5.00;99.90;;;;;;5048428;28;20045;-42
2023/01/15 03:34:01;;;;;;;21.60;0.98;;;5.10;99.90;;;;;;5048072;28;20711;-42
2023/01/15 03:36:27;;;;;;;9.80;1.38;;;4.90;99.90;;;;;;5048594;28;20037;-41
2023/01/15 03:38:53;;;;;;;9.73;0.85;;;4.90;99.90;;;;;;5048728;28;20122;-41
2023/01/15 03:41:39;;;;;;;9.85;1.05;;;4.90;99.90;;;;;;5030104;28;20037;-43
2023/01/15 03:44:23;;;;;;;14.65;1.23;;;4.70;99.90;;;;;;5048257;28;20052;-42
2023/01/15 03:47:09;;;;;;;7.20;1.58;;;4.70;99.90;;;;;;5048274;28;20041;-43
2023/01/15 03:50:01;;;;;;;15.77;1.20;;;4.70;99.90;;;;;;5047842;28;20041;-42
2023/01/15 03:52:55;;;;;;;16.60;2.58;;;5.00;99.90;;;;;;5024406;28;20379;-42
2023/01/15 03:55:46;;;;;;;11.05;1.45;;;4.80;99.90;;;;;;5047780;28;20056;-42
2023/01/15 03:58:40;;;;;;;10.02;2.03;;;4.60;99.90;;;;;;5048275;28;20103;-42
2023/01/15 04:01:11;;;;;;;13.50;0.70;;;4.60;99.90;;;;;;5047953;28;20087;-42
2023/01/15 04:03:38;;;;;;;18.85;2.35;;;4.80;99.90;;;;;;5047840;28;20479;-42
2023/01/15 04:06:05;;;;;;;9.75;1.67;;;;;;;;;;5047756;28;20494;-41
2023/01/15 04:08:36;;;;;;;11.27;0.95;;;4.50;99.90;;;;;;5047588;28;20132;-41
2023/01/15 04:11:02;;;;;;;13.97;1.07;;;4.50;99.90;;;;;;5048056;28;20128;-41
2023/01/15 04:13:28;;;;;;;11.88;0.90;;;4.50;99.90;;;;;;5047847;28;20390;-42
2023/01/15 04:15:55;;;;;;;13.63;1.08;;;4.30;99.90;;;;;;5047892;28;20048;-43
2023/01/15 04:18:21;;;;;;;11.93;0.90;;;4.30;99.90;;;;;;5047043;28;20063;-42
2023/01/15 04:20:48;;;;;;;19.75;1.95;;;4.30;99.90;;;;;;5047673;28;20049;-43
2023/01/15 04:23:14;;;;;;;7.60;0.50;;;4.40;99.90;;;;;;5047590;28;20052;-41
2023/01/15 04:25:40;;;;;;;7.75;0.82;;;4.20;99.90;;;;;;5047429;28;20055;-42
2023/01/15 04:28:06;;;;;;;12.88;1.25;;;4.40;99.90;;;;;;5047557;28;20041;-42
2023/01/15 04:30:33;;;;;;;9.27;1.50;;;4.30;99.90;;;;;;5047112;28;20041;-43
2023/01/15 04:32:59;;;;;;;10.32;1.08;;;4.40;99.90;;;;;;5047226;28;20500;-42
2023/01/15 04:35:25;;;;;;;12.05;1.10;;;4.30;99.90;;;;;;5046804;28;20163;-43
2023/01/15 04:37:58;;;;;;;12.02;1.30;;;4.50;99.90;;;;;;5045590;28;20056;-42
2023/01/15 04:45:54;;;;;;;10.35;1.48;;;4.30;99.90;;;;;;5047108;28;20114;-42
2023/01/15 04:48:20;;;;;;;16.33;1.42;;;4.30;99.90;;;;;;5047058;28;20053;-41
2023/01/15 04:50:46;;;;;;;8.77;1.02;;;4.30;99.90;;;;;;5046830;28;20505;-41
2023/01/15 04:53:12;;;;;;;11.32;1.02;;;4.30;99.90;;;;;;5046904;28;20508;-42
2023/01/15 04:55:37;;;;;;;5.78;0.68;;;4.30;99.90;;;;;;5046896;28;20040;-42
2023/01/15 04:58:03;;;;;;;12.90;1.40;;;4.30;99.90;;;;;;5047108;28;20049;-41
2023/01/15 05:00:28;;;;;;;9.18;0.98;;;4.30;99.90;;;;;;5046465;28;20041;-43
2023/01/15 05:02:54;;;;;;;11.32;1.70;;;4.30;99.90;;;;;;5046214;28;20076;-42
2023/01/15 05:05:20;;;;;;;9.85;1.42;;;4.20;99.90;;;;;;5046522;28;20441;-42
2023/01/15 05:07:45;;;;;;;9.25;1.02;;;4.40;99.90;;;;;;5046040;28;20055;-42
2023/01/15 05:10:11;;;;;;;15.35;1.25;;;4.30;99.90;;;;;;5046251;28;20041;-43
2023/01/15 05:12:37;;;;;;;13.23;0.80;;;4.30;99.90;;;;;;5046120;28;20043;-42
2023/01/15 05:15:03;;;;;;;11.98;0.88;;;4.20;99.90;;;;;;5046620;28;20128;-42
2023/01/15 05:17:28;;;;;;;10.02;0.90;;;4.40;99.90;;;;;;5045908;28;20061;-42
2023/01/15 05:19:54;;;;;;;7.70;1.33;;;4.40;99.90;;;;;;5046298;28;20136;-42
2023/01/15 05:22:19;;;;;;;8.93;0.77;;;4.20;99.90;;;;;;5046248;28;20055;-41
2023/01/15 05:24:45;;;;;;;7.80;0.88;;;4.20;99.90;;;;;;5046282;28;20083;-42
2023/01/15 05:27:11;;;;;;;11.82;0.73;;;4.10;99.90;;;;;;5046050;28;20045;-43
2023/01/15 05:29:36;;;;;;;10.60;0.90;;;3.90;99.90;;;;;;5046009;28;20044;-41
2023/01/15 05:32:02;;;;;;;8.15;1.23;;;4.20;99.90;;;;;;5046049;28;20040;-42
2023/01/15 05:34:28;;;;;;;10.85;0.70;;;4.30;99.90;;;;;;5045923;28;20083;-42
2023/01/15 05:36:53;;;;;;;13.23;1.77;;;4.20;99.90;;;;;;5046139;28;20041;-41
2023/01/15 05:39:19;;;;;;;9.70;1.33;;;4.10;99.90;;;;;;5046373;28;20048;-42
2023/01/15 05:41:47;;;;;;;9.15;0.60;;;4.10;99.90;;;;;;5046230;28;20041;-41
2023/01/15 05:44:34;;;;;;;7.60;0.85;;;4.00;99.90;;;;;;5046246;28;20537;-42
2023/01/15 05:47:06;;;;;;;9.38;1.38;;;4.20;99.90;;;;;;5045479;28;20051;-42
2023/01/15 05:49:33;;;;;;;12.30;1.42;;;4.10;99.90;;;;;;5046334;28;20120;-41
2023/01/15 05:51:59;;;;;;;9.02;1.02;;;3.90;99.90;;;;;;5045887;28;20083;-41
2023/01/15 05:54:29;;;;;;;9.07;0.70;;;4.00;99.90;;;;;;5046123;28;20103;-41
2023/01/15 05:56:55;;;;;;;10.60;0.95;;;4.00;99.90;;;;;;5045818;28;20071;-42
2023/01/15 05:59:23;;;;;;;12.68;1.23;;;5.00;99.90;;;;;;5045862;28;20041;-42
2023/01/15 06:01:49;;;;;;;13.00;2.78;;;3.90;99.90;;;;;;5046053;28;20040;-43
2023/01/15 06:04:19;;;;;;;12.00;1.05;;;3.90;99.90;;;;;;5045932;28;20477;-41
2023/01/15 06:06:46;;;;;;;16.70;1.40;;;4.90;99.90;;;;;;5046444;28;20049;-41
2023/01/15 06:09:12;;;;;;;12.43;2.22;;;3.90;99.90;;;;;;5045944;28;20087;-42
2023/01/15 06:11:38;;;;;;;11.15;0.98;;;3.90;99.90;;;;;;5046106;28;20392;-42
2023/01/15 06:14:04;;;;;;;10.82;0.45;;;3.80;99.90;;;;;;5048803;28;20068;-42
2023/01/15 06:16:30;;;;;;;14.60;2.25;;;3.90;99.90;;;;;;5049515;28;20040;-41
2023/01/15 06:19:00;;;;;;;14.32;2.03;;;3.80;99.90;;;;;;5049520;28;20049;-43
2023/01/15 06:21:26;;;;;;;10.88;0.93;;;2.20;99.90;;;;;;5049900;28;20045;-41
2023/01/15 06:23:53;;;;;;;17.88;1.00;;;4.10;99.90;;;;;;5049545;28;20754;-41
2023/01/15 06:26:18;;;;;;;8.10;0.77;;;3.80;99.90;;;;;;5049195;28;20482;-41
2023/01/15 06:28:45;;;;;;;7.00;0.70;;;3.70;99.90;;;;;;5049408;28;20056;-41
2023/01/15 06:31:14;;;;;;;11.43;1.77;;;4.30;99.90;;;;;;5049471;28;20470;-43
2023/01/15 06:33:40;;;;;;;7.90;1.33;;;3.70;99.90;;;;;;5049781;28;20044;-41
2023/01/15 06:36:12;;;;;;;12.73;1.52;;;3.80;99.90;;;;;;5048782;28;20042;-42
2023/01/15 06:38:38;;;;;;;12.95;1.60;;;3.70;99.90;;;;;;5048770;28;20490;-42
2023/01/15 06:47:19;;;;;;;11.57;1.67;;;3.70;99.90;;;;;;5048513;28;20592;-41
2023/01/15 06:49:30;;;;;;;9.15;0.90;;;3.60;99.90;;;;;;5049072;28;20122;-41
2023/01/15 06:51:56;;;;;;;14.05;1.67;;;3.60;99.90;;;;;;5048752;28;20574;-41
2023/01/15 06:54:22;;;;;;;12.10;0.98;;;3.40;99.90;;;;;;5048742;28;20150;-41
2023/01/15 06:56:48;;;;;;;10.93;0.98;;;3.50;99.90;;;;;;5048949;28;20070;-42
2023/01/15 06:59:13;;;;;;;8.15;0.90;;;3.50;99.90;;;;;;5049015;28;20422;-42
2023/01/15 07:01:39;;;;;;;6.75;0.50;;;3.40;99.90;;;;;;5048656;28;20494;-41
2023/01/15 07:04:05;;;;;;;13.05;1.45;;;4.20;99.90;;;;;;5048570;28;20044;-41
2023/01/15 07:06:31;;;;;;;5.90;0.52;;;3.40;99.90;;;;;;5048489;28;20040;-42
2023/01/15 07:08:56;;;;;;;13.50;1.17;;;3.30;99.90;;;;;;5048620;28;20135;-42
2023/01/15 07:11:22;;;;;;;6.38;0.70;;;3.30;99.90;;;;;;5048981;28;20054;-42
2023/01/15 07:13:48;;;;;;;8.23;0.82;;;3.40;99.90;;;;;;5049321;28;20586;-42
2023/01/15 07:16:26;;;;;;;12.20;0.77;;;3.20;99.90;;;;;;5049019;28;20069;-42
2023/01/15 07:18:54;;;;;;;7.45;0.90;;;3.20;99.90;;;;;;5048807;28;20088;-42
2023/01/15 07:21:20;;;;;;;6.95;0.70;;;3.20;99.90;;;;;;5048523;28;20041;-43
2023/01/15 07:23:45;;;;;;;9.20;0.60;;;3.20;99.90;;;;;;5048450;28;20044;-41
2023/01/15 07:26:11;;;;;;;10.30;1.17;;;3.40;99.90;;;;;;5047197;28;20431;-42
2023/01/15 07:28:37;;;;;;;12.88;0.68;;;3.20;99.90;;;;;;5048267;28;20037;-41
2023/01/15 07:31:02;;;;;;;13.15;0.70;;;3.20;99.90;;;;;;5048432;28;20394;-42
2023/01/15 07:33:28;;;;;;;9.85;0.73;;;3.60;99.90;;;;;;5048945;28;20452;-41
2023/01/15 07:35:55;;;;;;;15.52;2.13;;;3.20;99.90;;;;;;5048384;28;20032;-41
2023/01/15 07:38:21;;;;;;;6.18;0.47;;;4.10;99.90;;;;;;5047687;28;20570;-42
2023/01/15 07:49:44;;;;;;;10.80;1.80;;;3.20;99.90;;;;;;5047939;28;20063;-41
2023/01/15 07:51:45;;;;;;;10.27;1.98;;;3.50;99.90;;;;;;5048025;28;20131;-41
2023/01/15 07:54:11;;;;;;;6.82;0.57;;;3.40;99.90;;;;;;5047461;28;20111;-43
2023/01/15 07:56:37;;;;;;;6.63;0.60;;;3.30;99.90;;;;;;5047340;28;20040;-41
2023/01/15 07:59:02;;;;;;;6.13;0.40;;;3.30;99.90;;;;;;5047287;28;20053;-41
2023/01/15 08:01:28;;;;;;;7.95;0.82;;;3.20;99.90;;;;;;5047269;28;20048;-42
2023/01/15 08:03:54;;;;;;;7.30;0.50;;;4.00;99.90;;;;;;5047372;28;20053;-43
2023/01/15 08:06:19;;;;;;;7.90;0.45;;;3.30;99.90;;;;;;5046847;28;20045;-42
2023/01/15 08:08:45;;;;;;;9.57;1.50;;;3.30;99.90;;;;;;5047265;28;20049;-41
2023/01/15 08:16:39;;;;;;;7.32;0.32;;;3.30;99.90;;;;;;5047095;28;20136;-42
2023/01/15 08:19:05;;;;;;;7.40;0.40;;;4.30;99.90;;;;;;5047121;28;20152;-41
2023/01/15 08:21:31;;;;;;;5.78;0.38;;;3.60;99.90;;;;;;5047134;28;20090;-41
2023/01/15 08:23:56;;;;;;;10.68;1.00;;;3.50;99.90;;;;;;5047393;28;20136;-43
2023/01/15 08:26:22;;;;;;;6.43;0.40;;;3.30;99.90;;;;;;5046705;28;20060;-43
2023/01/15 08:28:47;;;;;;;8.80;0.50;;;3.30;99.90;;;;;;5046874;28;20044;-41
2023/01/15 08:31:13;;;;;;;9.90;0.52;;;3.30;99.90;;;;;;5047122;28;20039;-42
2023/01/15 08:33:39;;;;;;;10.80;1.52;;;3.50;99.90;;;;;;5047158;28;20118;-41
2023/01/15 08:36:05;;;;;;;5.65;0.40;;;2.90;99.90;;;;;;5045995;28;20037;-42
2023/01/15 08:38:30;;;;;;;5.95;0.40;;;3.50;99.90;;;;;;5046857;28;20045;-41
2023/01/15 08:40:59;;;;;;;11.15;1.05;;;3.30;99.90;;;;;;5046793;28;20800;-42
2023/01/15 08:43:26;;;;;;;7.68;1.38;;;3.50;99.90;;;;;;5046886;28;20045;-42
2023/01/15 08:45:52;;;;;;;5.82;0.82;;;3.60;99.90;;;;;;5047213;28;20074;-41
2023/01/15 08:48:18;;;;;;;8.35;0.80;;;3.70;99.90;;;;;;5046663;28;20045;-42
2023/01/15 08:50:44;;;;;;;7.45;1.00;;;3.90;99.90;;;;;;5046679;28;20391;-42
2023/01/15 08:53:09;;;;;;;8.23;0.95;;;3.90;99.90;;;;;;5046127;28;20874;-41
2023/01/15 08:55:37;;;;;;;5.22;0.40;;;4.00;99.90;;;;;;5046279;28;20036;-41
2023/01/15 08:58:02;;;;;;;6.60;0.40;;;3.90;99.90;;;;;;5046217;28;20052;-41
2023/01/15 09:00:28;;;;;;;3.70;0.50;;;4.30;99.90;;;;;;5027478;28;20041;-41
2023/01/15 09:02:53;;;;;;;6.22;0.50;;;4.40;99.90;;;;;;5046620;28;20037;-42
2023/01/15 09:05:19;;;;;;;11.75;1.15;;;4.50;99.90;;;;;;5045963;28;20207;-41
2023/01/15 09:07:45;;;;;;;5.65;0.52;;;4.50;99.90;;;;;;5046714;28;20056;-42
2023/01/15 09:10:10;;;;;;;10.88;0.70;;;4.20;99.90;;;;;;5046671;28;20637;-42
2023/01/15 09:12:36;;;;;;;7.47;2.60;;;4.30;99.90;;;;;;5061500;28;20132;-42
2023/01/15 09:15:04;;;;;;;4.22;0.40;;;4.30;99.90;;;;;;5044737;28;20049;-42
2023/01/15 09:17:31;;;;;;;3.95;0.32;;;4.10;99.90;;;;;;5044872;28;20060;-42
2023/01/15 09:19:56;;;;;;;11.65;1.00;;;4.20;99.90;;;;;;5046207;28;20136;-41
2023/01/15 09:22:22;;;;;;;18.13;0.77;;;4.00;99.90;;;;;;5045600;28;20159;-41
2023/01/15 09:24:48;;;;;;;8.90;0.80;;;4.00;99.90;;;;;;5046183;28;20052;-42
2023/01/15 09:27:13;;;;;;;9.75;1.55;;;3.90;99.90;;;;;;5045256;28;20045;-41
2023/01/15 09:29:39;;;;;;;8.07;0.75;;;4.20;99.90;;;;;;5045956;28;20045;-41
2023/01/15 09:32:06;;;;;;;3.88;0.50;;;3.70;99.90;;;;;;5046027;28;20041;-41
2023/01/15 09:34:32;;;;;;;5.72;0.40;;;3.80;99.90;;;;;;5045951;28;20047;-41
2023/01/15 09:36:58;;;;;;;4.90;0.30;;;4.00;99.90;;;;;;5046035;28;20115;-41
2023/01/15 09:39:23;;;;;;;4.47;0.50;;;3.90;99.90;;;;;;5046386;28;20814;-41
2023/01/15 09:42:14;;;;;;;4.57;0.20;;;3.90;99.90;;;;;;5046763;28;20485;-41
2023/01/15 09:45:06;;;;;;;2.50;0.30;;;3.60;99.90;;;;;;5046502;28;20140;-41
2023/01/15 09:47:53;;;;;;;8.48;0.82;;;3.50;99.90;;;;;;5046227;28;20483;-43
2023/01/15 09:51:02;;;;;;;6.53;0.93;;;3.50;99.90;;;;;;5049991;28;20051;-39
2023/01/15 09:53:34;;;;;;;4.32;0.40;;;3.70;99.90;;;;;;5032437;28;20064;-39
2023/01/15 09:56:02;;;;;;;6.00;0.40;;;3.40;99.90;;;;;;5050618;28;20036;-39
2023/01/15 09:58:37;;;;;;;2.63;0.47;;;3.80;99.90;;;;;;5049789;28;20784;-39
2023/01/15 10:01:04;;;;;;;5.72;0.82;;;3.60;99.90;;;;;;5050465;28;20421;-39
2023/01/15 10:03:49;;;;;;;4.43;0.50;;;4.00;99.90;;;;;;5049401;28;20072;-39
2023/01/15 10:06:26;;;;;;;3.08;0.40;;;3.80;99.90;;;;;;5050089;28;20048;-39
2023/01/15 10:09:05;;;;;;;10.10;0.70;;;3.80;99.90;;;;;;5049645;28;20481;-39
2023/01/15 10:14:58;;;;;;;6.00;0.50;;;4.20;99.90;;;;;;5033355;28;20079;-39
2023/01/15 10:17:33;;;;;;;5.97;0.70;;;4.20;99.90;;;;;;5045755;28;20198;-39
2023/01/15 10:19:59;;;;;;;5.85;0.45;;;4.30;99.90;;;;;;5046840;28;20719;-39
2023/01/15 10:22:44;;;;;;;5.50;0.30;;;4.30;99.90;;;;;;5046488;28;20037;-39
2023/01/15 10:25:16;;;;;;;5.20;0.30;;;4.10;99.90;;;;;;5046485;28;20041;-39
2023/01/15 10:27:45;;;;;;;3.13;0.10;;;4.60;99.90;;;;;;5046292;28;20064;-39
2023/01/15 10:30:42;;;;;;;5.75;0.38;;;4.10;99.90;;;;;;5046735;28;20055;-39
2023/01/15 10:33:36;;;;;;;6.40;0.40;;;3.70;99.90;;;;;;5042459;28;20045;-39
2023/01/15 10:36:38;;;;;;;9.75;1.13;;;3.70;99.90;;;;;;5028045;28;20044;-39
2023/01/15 10:39:42;;;;;;;5.90;0.22;;;3.80;99.90;;;;;;5013338;28;20506;-39
2023/01/15 10:42:29;;;;;;;8.48;0.60;;;3.60;99.90;;;;;;5046481;28;20045;-39
2023/01/15 10:45:12;;;;;;;8.32;0.60;;;3.60;99.90;;;;;;5046477;28;20079;-39
2023/01/15 10:47:39;;;;;;;10.40;1.13;;;3.70;99.90;;;;;;5045942;28;20045;-39
2023/01/15 10:50:34;;;;;;;3.17;0.43;;;3.70;99.90;;;;;;5046228;28;20386;-39
2023/01/15 10:53:05;;;;;;;5.43;0.50;;;3.80;99.90;;;;;;5032946;28;20813;-39
2023/01/15 10:55:46;;;;;;;6.38;0.40;;;4.50;99.90;;;;;;5045760;28;20045;-39
2023/01/15 10:58:14;;;;;;;6.55;0.68;;;3.80;99.90;;;;;;5046227;28;20036;-39
2023/01/15 11:00:45;;;;;;;8.93;0.50;;;4.50;99.90;;;;;;5044992;28;20536;-39
2023/01/15 11:03:23;;;;;;;6.53;0.65;;;3.80;99.90;;;;;;5045721;28;20049;-39
2023/01/15 11:05:50;;;;;;;12.57;0.70;;;3.90;99.90;;;;;;5045901;28;20481;-39
2023/01/15 11:08:31;;;;;;;8.32;0.55;;;3.90;99.90;;;;;;5045973;28;20059;-39
2023/01/15 11:11:04;;;;;;;14.57;1.48;;;3.80;99.90;;;;;;5046185;28;20103;-39
2023/01/15 11:19:37;;;;;;;8.73;1.52;;;3.90;99.90;;;;;;5045834;28;20099;-39
2023/01/15 11:22:17;;;;;;;10.05;0.77;;;4.20;99.90;;;;;;5062651;28;20045;-39
2023/01/15 11:24:58;;;;;;;11.90;0.50;;;4.40;99.90;;;;;;5063674;28;20048;-38
2023/01/15 11:27:34;;;;;;;14.82;1.75;;;4.40;99.90;;;;;;5064091;28;20046;-40
2023/01/15 11:30:02;;;;;;;8.15;1.60;;;4.40;99.90;;;;;;5066226;28;20187;-39
2023/01/15 11:32:31;;;;;;;15.88;1.00;;;4.30;99.90;;;;;;5065560;28;20036;-39
2023/01/15 11:35:07;;;;;;;12.35;1.50;;;4.40;99.90;;;;;;5066167;28;20549;-41
2023/01/15 11:37:33;;;;;;;14.13;1.15;;;4.50;99.90;;;;;;5065805;28;20048;-41
2023/01/15 11:40:07;;;;;;;9.65;1.20;;;5.00;99.90;;;;;;5066338;28;20060;-39
2023/01/15 11:51:11;;;;;;;9.70;1.23;;;5.40;99.90;;;;;;5066117;28;20055;-40
2023/01/15 11:53:47;;;;;;;5.32;0.65;;;6.10;99.90;;;;;;5065378;28;20536;-40
2023/01/15 11:56:16;;;;;;;12.60;1.00;;;5.70;99.90;;;;;;5065670;28;20115;-40
2023/01/15 11:58:49;;;;;;;8.82;0.75;;;6.20;99.90;;;;;;5064961;28;20356;-38
2023/01/15 12:01:43;;;;;;;13.00;1.40;;;5.30;99.90;;;;;;5065168;28;20048;-38
2023/01/15 12:04:37;;;;;;;9.10;1.27;;;5.70;99.90;;;;;;5049564;28;20140;-39
2023/01/15 12:07:10;;;;;;;14.00;2.47;;;5.30;99.90;;;;;;5030774;28;20079;-39
2023/01/15 12:11:02;;;;;;;10.80;1.35;;;5.50;99.90;;;;;;5066059;28;20051;-39
2023/01/15 12:13:25;;;;;;;11.13;1.00;;;5.50;99.90;;;;;;5044224;28;20036;-41
2023/01/15 12:15:54;;;;;;;7.15;0.55;;;5.40;99.90;;;;;;5047394;28;20052;-41
2023/01/15 12:18:44;;;;;;;8.23;0.50;;;5.40;99.90;;;;;;5037335;28;20057;-44
2023/01/15 12:21:19;;;;;;;9.77;1.00;;;5.20;99.90;;;;;;5029618;28;20059;-44
2023/01/15 12:24:09;;;;;;;7.68;0.63;;;5.60;99.90;;;;;;5062460;28;20094;-40
2023/01/15 12:26:48;;;;;;;6.10;1.52;;;5.40;99.90;;;;;;5064736;28;20386;-39
2023/01/15 12:29:22;;;;;;;6.78;1.30;;;5.60;99.90;;;;;;5064246;28;20055;-39
2023/01/15 12:32:19;;;;;;;7.07;1.52;;;5.40;99.90;;;;;;5063864;28;20402;-47
2023/01/15 12:34:45;;;;;;;9.63;0.63;;;5.50;99.90;;;;;;5040561;28;20651;-43
2023/01/15 12:37:19;;;;;;;7.57;1.02;;;5.50;99.90;;;;;;5065000;28;20094;-44
2023/01/15 12:39:58;;;;;;;7.68;0.40;;;6.20;99.90;;;;;;5064374;28;20036;-45
2023/01/15 12:45:22;;;;;;;5.78;0.57;;;6.20;99.90;;;;;;5064290;28;20073;-42
2023/01/15 12:48:06;;;;;;;7.15;0.20;;;5.90;99.90;;;;;;5063871;28;20612;-43
2023/01/15 12:50:48;;;;;;;6.47;0.90;;;5.90;99.90;;;;;;5064424;28;20048;-44
2023/01/15 12:53:25;;;;;;;16.23;1.13;;;6.00;99.90;;;;;;5064416;28;20032;-43
2023/01/15 12:56:09;;;;;;;10.63;0.93;;;6.10;99.90;;;;;;5064078;28;20046;-47
2023/01/15 12:59:01;;;;;;;9.60;0.57;;;6.10;99.90;;;;;;5063204;28;20080;-46
2023/01/15 13:01:37;;;;;;;8.18;0.73;;;6.20;99.90;;;;;;5062732;28;20051;-48
2023/01/15 13:04:11;;;;;;;5.30;0.50;;;6.10;99.90;;;;;;5063740;28;20872;-45
2023/01/15 13:06:43;;;;;;;6.03;1.08;;;6.10;99.90;;;;;;5063650;28;20037;-45
2023/01/15 13:09:30;;;;;;;7.38;0.52;;;6.20;99.90;;;;;;5045647;28;20049;-45
2023/01/15 13:11:56;;;;;;;7.90;0.50;;;6.20;99.90;;;;;;5063223;28;20482;-43
2023/01/15 13:14:23;;;;;;;10.93;1.00;;;7.30;99.90;;;;;;5044946;28;20036;-44
2023/01/15 13:16:59;;;;;;;5.68;0.40;;;7.00;99.90;;;;;;5036070;28;20047;-44
2023/01/15 13:19:39;;;;;;;9.75;0.95;;;6.20;99.90;;;;;;5045345;28;20045;-47
2023/01/15 13:22:13;;;;;;;7.68;1.65;;;6.20;99.90;;;;;;5062612;28;20049;-47
2023/01/15 13:25:00;;;;;;;10.82;1.10;;;6.80;99.90;;;;;;5063400;28;20055;-46
2023/01/15 13:27:51;;;;;;;9.77;0.40;;;6.30;99.90;;;;;;5063229;28;20074;-50
2023/01/15 13:30:26;;;;;;;4.57;0.47;;;6.10;99.90;;;;;;5062700;28;20047;-42
2023/01/15 13:32:57;;;;;;;18.20;1.08;;;6.10;99.90;;;;;;5044297;28;20044;-42
2023/01/15 13:35:34;;;;;;;8.73;0.55;;;6.80;99.90;;;;;;5045442;28;20076;-41
2023/01/15 13:38:04;;;;;;;7.78;0.57;;;6.00;99.90;;;;;;5063089;28;20048;-42
2023/01/15 13:40:35;;;;;;;7.40;1.38;;;6.10;99.90;;;;;;5063848;28;20044;-41
2023/01/15 13:43:02;;;;;;;7.68;0.95;;;6.40;99.90;;;;;;5063379;28;20044;-42
2023/01/15 13:45:47;;;;;;;5.57;1.38;;;5.90;99.90;;;;;;5062897;28;20083;-42
2023/01/15 13:48:19;;;;;;;6.85;0.95;;;5.90;99.90;;;;;;5063192;28;20072;-42
2023/01/15 13:50:53;;;;;;;6.35;0.77;;;5.70;99.90;;;;;;5063749;28;20044;-42
2023/01/15 13:53:38;;;;;;;5.65;0.77;;;5.70;99.90;;;;;;5062807;28;20036;-42
2023/01/15 13:56:11;;;;;;;4.25;0.90;;;5.60;99.90;;;;;;5062092;28;20522;-43
2023/01/15 13:58:41;;;;;;;3.03;0.45;;;5.30;99.90;;;;;;5043904;28;20044;-44
2023/01/15 14:01:30;;;;;;;4.68;0.30;;;5.50;99.90;;;;;;5043858;28;20044;-44
2023/01/15 14:04:01;;;;;;;5.10;0.30;;;4.60;99.90;;;;;;5062172;28;20079;-47
2023/01/15 14:06:37;;;;;;;2.08;0.20;;;4.60;99.90;;;;;;5062702;28;20178;-45